createdAt,value
2023-02-15T00:00:30.652Z,-2.26
2023-02-15T00:03:00.296Z,-2.33
2023-02-15T00:05:30.439Z,-2.32
2023-02-15T00:07:58.943Z,-2.32
2023-02-15T00:10:27.234Z,-2.44
2023-02-15T00:12:55.461Z,-2.39
2023-02-15T00:15:23.750Z,-2.37
2023-02-15T00:17:51.984Z,-2.14
2023-02-15T00:20:21.901Z,-2.06
2023-02-15T00:22:50.143Z,-1.96
2023-02-15T00:25:18.845Z,-1.80
2023-02-15T00:27:47.053Z,-1.80
2023-02-15T00:30:15.874Z,-1.81
2023-02-15T00:32:44.150Z,-1.86
2023-02-15T00:35:12.434Z,-1.97
2023-02-15T00:37:42.153Z,-2.07
2023-02-15T00:40:11.723Z,-2.20
2023-02-15T00:42:39.989Z,-2.26
2023-02-15T00:45:09.563Z,-2.39
2023-02-15T00:47:37.876Z,-2.49
2023-02-15T00:50:08.195Z,-2.61
2023-02-15T00:52:36.453Z,-2.55
2023-02-15T00:55:07.115Z,-2.54
2023-02-15T00:57:35.349Z,-2.55
2023-02-15T01:00:03.708Z,-2.48
2023-02-15T01:02:32.032Z,-2.30
2023-02-15T01:05:00.294Z,-2.37
2023-02-15T01:07:28.597Z,-2.50
2023-02-15T01:09:56.868Z,-2.54
2023-02-15T01:12:26.838Z,-2.63
2023-02-15T01:14:55.045Z,-2.64
2023-02-15T01:17:23.358Z,-2.70
2023-02-15T01:19:53.142Z,-2.71
2023-02-15T01:22:21.470Z,-2.73
2023-02-15T01:24:51.941Z,-2.80
2023-02-15T01:27:21.301Z,-2.88
2023-02-15T01:29:50.976Z,-2.94
2023-02-15T01:32:19.181Z,-2.89
2023-02-15T01:34:47.481Z,-2.53
2023-02-15T01:37:15.718Z,-2.40
2023-02-15T01:39:43.923Z,-2.41
2023-02-15T01:42:13.553Z,-2.45
2023-02-15T01:44:54.255Z,-2.55
2023-02-15T01:47:30.897Z,-2.65
2023-02-15T01:50:11.486Z,-2.68
2023-02-15T01:52:49.415Z,-2.69
2023-02-15T01:55:18.917Z,-2.58
2023-02-15T01:57:48.804Z,-2.60
2023-02-15T02:00:20.512Z,-2.64
2023-02-15T02:02:55.613Z,-2.71
2023-02-15T02:05:24.350Z,-2.80
2023-02-15T02:07:58.377Z,-2.78
2023-02-15T02:10:28.292Z,-2.66
2023-02-15T02:13:01.845Z,-2.65
2023-02-15T02:15:45.695Z,-2.67
2023-02-15T02:18:34.893Z,-2.64
2023-02-15T02:21:49.054Z,-2.52
2023-02-15T02:24:57.993Z,-2.62
2023-02-15T02:27:38.582Z,-2.75
2023-02-15T02:30:58.034Z,-2.91
2023-02-15T02:33:44.953Z,-3.06
2023-02-15T02:36:35.266Z,-3.06
2023-02-15T02:39:31.020Z,-3.09
2023-02-15T02:42:09.746Z,-3.10
2023-02-15T02:44:45.441Z,-3.08
2023-02-15T02:47:21.886Z,-2.96
2023-02-15T02:50:00.048Z,-3.00
2023-02-15T02:52:42.681Z,-3.08
2023-02-15T02:55:19.478Z,-3.16
2023-02-15T02:57:56.257Z,-3.23
2023-02-15T03:00:29.288Z,-3.23
2023-02-15T03:03:06.308Z,-3.23
2023-02-15T03:05:43.244Z,-3.26
2023-02-15T03:08:13.082Z,-3.30
2023-02-15T03:10:43.566Z,-3.35
2023-02-15T03:13:11.966Z,-3.42
2023-02-15T03:16:02.612Z,-3.35
2023-02-15T03:18:38.745Z,-3.37
2023-02-15T03:21:23.061Z,-3.37
2023-02-15T03:24:00.310Z,-3.42
2023-02-15T03:26:31.836Z,-3.40
2023-02-15T03:29:04.219Z,-3.40
2023-02-15T03:31:39.907Z,-3.41
2023-02-15T03:34:13.789Z,-3.41
2023-02-15T03:36:54.303Z,-3.37
2023-02-15T03:39:32.965Z,-3.28
2023-02-15T03:42:12.524Z,-2.95
2023-02-15T03:44:54.476Z,-2.69
2023-02-15T03:47:29.574Z,-2.79
2023-02-15T03:50:04.694Z,-2.72
2023-02-15T03:52:36.974Z,-2.50
2023-02-15T03:55:07.550Z,-2.52
2023-02-15T03:57:57.176Z,-2.48
2023-02-15T04:00:44.851Z,-2.46
2023-02-15T04:03:28.388Z,-2.52
2023-02-15T04:05:56.736Z,-2.56
2023-02-15T04:08:46.506Z,-2.45
2023-02-15T04:11:14.016Z,-2.52
2023-02-15T04:13:44.559Z,-2.48
2023-02-15T04:16:12.044Z,-2.48
2023-02-15T04:19:00.538Z,-2.55
2023-02-15T04:21:49.405Z,-2.51
2023-02-15T04:24:37.458Z,-2.61
2023-02-15T04:27:07.648Z,-2.73
2023-02-15T04:29:36.109Z,-2.76
2023-02-15T04:32:04.453Z,-2.64
2023-02-15T04:34:32.878Z,-2.46
2023-02-15T04:37:01.389Z,-2.46
2023-02-15T04:39:32.289Z,-2.47
2023-02-15T04:42:00.823Z,-2.50
2023-02-15T04:44:32.188Z,-2.39
2023-02-15T04:47:00.642Z,-2.35
2023-02-15T04:49:31.197Z,-2.28
2023-02-15T04:51:59.601Z,-2.24
2023-02-15T04:54:28.015Z,-2.24
2023-02-15T04:56:57.814Z,-2.28
2023-02-15T04:59:26.280Z,-2.25
2023-02-15T05:01:55.326Z,-2.23
2023-02-15T05:04:23.766Z,-2.28
2023-02-15T05:06:52.262Z,-2.41
2023-02-15T05:09:20.690Z,-2.37
2023-02-15T05:11:49.122Z,-2.46
2023-02-15T05:14:21.048Z,-2.46
2023-02-15T05:16:49.484Z,-2.52
2023-02-15T05:19:18.148Z,-2.54
2023-02-15T05:21:46.677Z,-2.57
2023-02-15T05:24:33.592Z,-2.61
2023-02-15T05:27:20.135Z,-2.73
2023-02-15T05:29:50.843Z,-2.81
2023-02-15T05:32:19.604Z,-2.72
2023-02-15T05:34:48.591Z,-2.82
2023-02-15T05:37:17.139Z,-2.91
2023-02-15T05:39:46.236Z,-3.03
2023-02-15T05:42:15.186Z,-3.07
2023-02-15T05:44:44.061Z,-3.03
2023-02-15T05:47:16.155Z,-3.10
2023-02-15T05:49:44.959Z,-3.19
2023-02-15T05:52:14.322Z,-3.17
2023-02-15T05:54:43.181Z,-3.22
2023-02-15T05:57:11.885Z,-3.27
2023-02-15T05:59:41.816Z,-3.27
2023-02-15T06:02:10.655Z,-3.21
2023-02-15T06:04:40.960Z,-3.20
2023-02-15T06:07:09.955Z,-3.21
2023-02-15T06:09:38.388Z,-3.13
2023-02-15T06:12:07.268Z,-2.90
2023-02-15T06:14:35.613Z,-2.97
2023-02-15T06:17:04.154Z,-2.96
2023-02-15T06:19:34.350Z,-2.99
2023-02-15T06:22:04.155Z,-2.95
2023-02-15T06:24:33.861Z,-2.99
2023-02-15T06:27:02.584Z,-3.07
2023-02-15T06:29:33.718Z,-3.04
2023-02-15T06:32:02.460Z,-3.01
2023-02-15T06:34:32.132Z,-3.04
2023-02-15T06:37:00.900Z,-3.05
2023-02-15T06:39:32.634Z,-3.02
2023-02-15T06:42:02.145Z,-2.99
2023-02-15T06:44:30.747Z,-2.96
2023-02-15T06:46:59.143Z,-2.98
2023-02-15T06:49:27.618Z,-2.98
2023-02-15T06:51:56.931Z,-2.95
2023-02-15T06:54:25.377Z,-2.89
2023-02-15T06:56:55.109Z,-2.76
2023-02-15T06:59:23.645Z,-2.74
2023-02-15T07:01:52.050Z,-2.67
2023-02-15T07:04:20.408Z,-2.58
2023-02-15T07:06:48.913Z,-2.48
2023-02-15T07:09:17.345Z,-2.29
2023-02-15T07:12:03.371Z,-2.13
2023-02-15T07:14:34.013Z,-1.90
2023-02-15T07:17:02.584Z,-1.83
2023-02-15T07:19:31.271Z,-1.74
2023-02-15T07:22:00.342Z,-1.61
2023-02-15T07:24:28.674Z,-1.52
2023-02-15T07:26:58.512Z,-1.43
2023-02-15T07:29:27.285Z,-1.39
2023-02-15T07:31:57.795Z,-1.22
2023-02-15T07:34:26.267Z,-1.02
2023-02-15T07:36:54.847Z,-0.89
2023-02-15T07:39:23.389Z,-0.72
2023-02-15T07:41:51.839Z,-0.58
2023-02-15T07:44:20.402Z,-0.44
2023-02-15T07:46:48.889Z,-0.35
2023-02-15T07:49:18.700Z,-0.24
2023-02-15T07:51:47.234Z,0.09
2023-02-15T07:54:15.592Z,0.58
2023-02-15T07:56:43.946Z,1.04
2023-02-15T07:59:12.302Z,1.32
2023-02-15T08:01:42.224Z,1.58
2023-02-15T08:04:12.134Z,2.01
2023-02-15T08:06:41.860Z,2.44
2023-02-15T08:09:11.857Z,2.96
2023-02-15T08:11:41.938Z,3.25
2023-02-15T08:14:13.122Z,4.48
2023-02-15T08:16:44.062Z,4.91
2023-02-15T08:19:15.375Z,4.62
2023-02-15T08:21:47.854Z,4.03
2023-02-15T08:24:17.616Z,4.23
2023-02-15T08:26:47.786Z,4.08
2023-02-15T08:29:18.221Z,3.54
2023-02-15T08:31:47.398Z,4.07
2023-02-15T08:34:19.630Z,3.90
2023-02-15T08:36:49.608Z,3.87
2023-02-15T08:39:18.948Z,3.58
2023-02-15T08:41:49.713Z,3.26
2023-02-15T08:44:20.497Z,3.42
2023-02-15T08:46:51.123Z,3.27
2023-02-15T08:49:22.257Z,3.23
2023-02-15T08:51:52.445Z,3.32
2023-02-15T08:54:23.274Z,3.46
2023-02-15T08:56:51.625Z,3.81
2023-02-15T08:59:23.813Z,3.85
2023-02-15T09:01:53.997Z,4.37
2023-02-15T09:04:23.660Z,4.70
2023-02-15T09:06:53.742Z,4.79
2023-02-15T09:09:23.117Z,4.47
2023-02-15T09:11:59.057Z,4.59
2023-02-15T09:14:29.145Z,4.53
2023-02-15T09:16:57.704Z,4.17
2023-02-15T09:19:27.300Z,4.24
2023-02-15T09:22:02.118Z,4.88
2023-02-15T09:24:35.845Z,5.19
2023-02-15T09:27:04.398Z,5.63
2023-02-15T09:29:39.167Z,5.57
2023-02-15T09:32:07.636Z,5.46
2023-02-15T09:34:36.519Z,5.88
2023-02-15T09:37:08.320Z,6.18
2023-02-15T09:39:41.669Z,6.30
2023-02-15T09:43:05.787Z,5.75
2023-02-15T09:46:04.231Z,6.19
2023-02-15T09:48:42.386Z,6.28
2023-02-15T09:51:42.625Z,5.96
2023-02-15T09:54:39.418Z,6.14
2023-02-15T09:57:19.311Z,5.78
2023-02-15T10:00:03.596Z,6.36
2023-02-15T10:02:56.710Z,5.99
2023-02-15T10:05:47.329Z,6.23
2023-02-15T10:09:03.963Z,6.15
2023-02-15T10:11:54.760Z,6.85
2023-02-15T10:14:59.198Z,7.29
2023-02-15T10:17:48.919Z,7.76
2023-02-15T10:20:36.488Z,8.02
2023-02-15T10:23:32.714Z,8.33
2023-02-15T10:26:15.044Z,8.20
2023-02-15T10:28:51.451Z,7.83
2023-02-15T10:31:28.725Z,8.43
2023-02-15T10:34:17.758Z,8.61
2023-02-15T10:37:12.465Z,8.00
2023-02-15T10:39:53.606Z,7.36
2023-02-15T10:42:37.669Z,6.76
2023-02-15T10:45:26.054Z,7.00
2023-02-15T10:48:24.747Z,6.74
2023-02-15T10:50:57.461Z,6.83
2023-02-15T10:54:08.966Z,7.17
2023-02-15T10:56:49.031Z,7.05
2023-02-15T10:59:39.707Z,6.77
2023-02-15T11:02:24.054Z,7.05
2023-02-15T11:05:09.835Z,7.67
2023-02-15T11:07:43.649Z,8.37
2023-02-15T11:10:32.335Z,8.34
2023-02-15T11:13:11.307Z,8.79
2023-02-15T11:15:46.844Z,8.29
2023-02-15T11:18:25.869Z,8.61
2023-02-15T11:21:02.140Z,7.99
2023-02-15T11:23:34.169Z,7.92
2023-02-15T11:26:12.446Z,8.20
2023-02-15T11:28:49.655Z,8.44
2023-02-15T11:31:22.432Z,8.01
2023-02-15T11:33:59.200Z,7.92
2023-02-15T11:36:34.940Z,8.18
2023-02-15T11:39:12.408Z,7.61
2023-02-15T11:41:46.720Z,7.22
2023-02-15T11:44:24.160Z,7.11
2023-02-15T11:46:53.107Z,7.63
2023-02-15T11:49:33.232Z,7.81
2023-02-15T11:52:07.121Z,7.04
2023-02-15T11:54:42.103Z,7.17
2023-02-15T11:57:21.296Z,7.12
2023-02-15T12:00:02.355Z,8.12
2023-02-15T12:02:31.216Z,8.33
2023-02-15T12:05:05.852Z,9.00
2023-02-15T12:07:39.706Z,9.28
2023-02-15T12:10:22.715Z,9.07
2023-02-15T12:13:11.989Z,8.36
2023-02-15T12:15:44.470Z,7.88
2023-02-15T12:18:26.751Z,8.88
2023-02-15T12:21:04.512Z,8.88
2023-02-15T12:23:35.088Z,9.13
2023-02-15T12:26:04.780Z,9.03
2023-02-15T12:28:40.727Z,7.78
2023-02-15T12:31:23.236Z,7.34
2023-02-15T12:33:55.918Z,7.10
2023-02-15T12:36:31.814Z,6.78
2023-02-15T12:39:20.512Z,6.89
2023-02-15T12:42:02.062Z,6.88
2023-02-15T12:44:33.001Z,7.47
2023-02-15T12:47:05.762Z,6.80
2023-02-15T12:49:36.641Z,6.23
2023-02-15T12:52:25.360Z,6.31
2023-02-15T12:54:54.018Z,6.00
2023-02-15T12:57:32.588Z,5.78
2023-02-15T13:00:06.788Z,5.90
2023-02-15T13:02:44.590Z,6.01
2023-02-15T13:05:27.231Z,6.09
2023-02-15T13:08:02.576Z,6.08
2023-02-15T13:10:35.821Z,6.33
2023-02-15T13:13:12.255Z,7.24
2023-02-15T13:15:46.361Z,7.96
2023-02-15T13:18:21.996Z,7.65
2023-02-15T13:20:52.617Z,6.91
2023-02-15T13:23:30.275Z,6.54
2023-02-15T13:26:01.610Z,6.77
2023-02-15T13:28:42.024Z,6.53
2023-02-15T13:31:17.880Z,6.18
2023-02-15T13:33:52.940Z,5.66
2023-02-15T13:36:31.303Z,5.48
2023-02-15T13:39:21.240Z,5.25
2023-02-15T13:42:03.762Z,5.37
2023-02-15T13:45:10.716Z,5.54
2023-02-15T13:47:54.269Z,5.75
2023-02-15T13:51:03.502Z,6.15
2023-02-15T13:54:03.013Z,6.26
2023-02-15T13:56:51.074Z,6.15
2023-02-15T13:59:57.246Z,6.09
2023-02-15T14:02:48.670Z,5.93
2023-02-15T14:05:48.555Z,5.71
2023-02-15T14:08:37.549Z,5.64
2023-02-15T14:11:15.409Z,5.56
2023-02-15T14:14:17.601Z,6.12
2023-02-15T14:17:06.642Z,5.99
2023-02-15T14:19:46.780Z,6.01
2023-02-15T14:22:30.020Z,6.07
2023-02-15T14:25:19.425Z,6.16
2023-02-15T14:28:05.256Z,5.66
2023-02-15T14:30:38.995Z,5.14
2023-02-15T14:33:14.423Z,4.80
2023-02-15T14:35:45.183Z,4.87
2023-02-15T14:38:34.539Z,4.85
2023-02-15T14:41:14.257Z,4.71
2023-02-15T14:43:58.612Z,4.99
2023-02-15T14:46:40.212Z,5.32
2023-02-15T14:49:14.564Z,5.62
2023-02-15T14:52:06.040Z,5.40
2023-02-15T14:54:59.256Z,5.05
2023-02-15T14:57:36.245Z,5.13
2023-02-15T15:00:39.088Z,5.08
2023-02-15T15:03:23.719Z,5.03
2023-02-15T15:05:56.093Z,5.09
2023-02-15T15:08:34.505Z,4.69
2023-02-15T15:11:44.252Z,4.28
2023-02-15T15:14:42.182Z,4.17
2023-02-15T15:17:14.899Z,4.03
2023-02-15T15:20:03.820Z,4.18
2023-02-15T15:22:34.326Z,3.95
2023-02-15T15:25:05.158Z,3.95
2023-02-15T15:27:56.115Z,4.07
2023-02-15T15:30:55.636Z,4.05
2023-02-15T15:34:18.631Z,3.92
2023-02-15T15:37:48.330Z,3.83
2023-02-15T15:41:13.213Z,3.71
2023-02-15T15:44:28.527Z,3.88
2023-02-15T15:47:21.737Z,3.57
2023-02-15T15:49:50.654Z,3.40
2023-02-15T15:52:23.652Z,3.35
2023-02-15T15:54:59.412Z,3.53
2023-02-15T15:57:34.744Z,3.47
2023-02-15T16:00:04.025Z,3.32
2023-02-15T16:02:32.743Z,3.26
2023-02-15T16:05:10.677Z,3.38
2023-02-15T16:07:43.441Z,3.36
2023-02-15T16:10:24.978Z,3.47
2023-02-15T16:12:55.585Z,3.38
2023-02-15T16:15:27.705Z,3.23
2023-02-15T16:17:59.429Z,3.28
2023-02-15T16:20:32.889Z,3.21
2023-02-15T16:23:34.035Z,3.17
2023-02-15T16:26:14.300Z,3.16
2023-02-15T16:28:50.838Z,3.01
2023-02-15T16:31:20.365Z,3.03
2023-02-15T16:33:48.798Z,3.04
2023-02-15T16:36:24.624Z,3.11
2023-02-15T16:39:21.431Z,3.05
2023-02-15T16:41:54.146Z,2.93
2023-02-15T16:44:23.491Z,2.78
2023-02-15T16:46:55.602Z,2.71
2023-02-15T16:49:29.340Z,2.58
2023-02-15T16:52:01.831Z,2.55
2023-02-15T16:54:33.372Z,2.57
2023-02-15T16:57:04.068Z,2.53
2023-02-15T16:59:38.227Z,2.48
2023-02-15T17:02:37.179Z,2.39
2023-02-15T17:05:20.818Z,2.39
2023-02-15T17:08:09.147Z,2.32
2023-02-15T17:10:44.105Z,2.24
2023-02-15T17:13:14.677Z,2.24
2023-02-15T17:15:45.575Z,2.10
2023-02-15T17:18:21.758Z,2.13
2023-02-15T17:20:55.923Z,2.18
2023-02-15T17:23:35.172Z,2.20
2023-02-15T17:26:17.299Z,2.25
2023-02-15T17:28:51.280Z,2.15
2023-02-15T17:31:22.932Z,2.12
2023-02-15T17:33:54.803Z,2.13
2023-02-15T17:36:26.017Z,2.17
2023-02-15T17:39:20.528Z,2.24
2023-02-15T17:41:53.963Z,2.19
2023-02-15T17:44:22.548Z,2.08
2023-02-15T17:46:50.835Z,2.16
2023-02-15T17:49:34.896Z,2.20
2023-02-15T17:52:03.831Z,2.25
2023-02-15T17:54:52.484Z,2.30
2023-02-15T17:57:22.185Z,2.20
2023-02-15T18:00:09.228Z,2.23
2023-02-15T18:02:55.304Z,2.25
2023-02-15T18:05:41.781Z,2.24
2023-02-15T18:08:33.066Z,2.15
2023-02-15T18:11:20.149Z,2.18
2023-02-15T18:13:49.950Z,2.09
2023-02-15T18:16:26.672Z,2.08
2023-02-15T18:18:55.378Z,2.11
2023-02-15T18:21:25.180Z,2.10
2023-02-15T18:23:53.711Z,2.10
2023-02-15T18:26:25.500Z,2.02
2023-02-15T18:28:56.047Z,2.01
2023-02-15T18:31:26.443Z,2.02
2023-02-15T18:33:59.310Z,2.04
2023-02-15T18:36:33.709Z,2.08
2023-02-15T18:39:08.562Z,2.07
2023-02-15T18:41:38.162Z,2.09
2023-02-15T18:44:14.255Z,2.08
2023-02-15T18:46:43.375Z,2.06
2023-02-15T18:49:13.250Z,2.08
2023-02-15T18:51:54.237Z,2.03
2023-02-15T18:54:26.996Z,2.01
2023-02-15T18:56:59.777Z,2.06
2023-02-15T18:59:32.867Z,2.07
2023-02-15T19:02:02.690Z,2.02
2023-02-15T19:04:36.058Z,2.04
2023-02-15T19:07:05.344Z,2.01
2023-02-15T19:09:35.995Z,2.01
2023-02-15T19:12:05.436Z,1.98
2023-02-15T19:14:35.676Z,1.90
2023-02-15T19:17:04.722Z,1.92
2023-02-15T19:19:34.058Z,1.90
2023-02-15T19:22:05.287Z,1.78
2023-02-15T19:24:44.438Z,1.73
2023-02-15T19:27:26.017Z,1.65
2023-02-15T19:30:01.587Z,1.62
2023-02-15T19:32:31.557Z,1.62
2023-02-15T19:35:01.012Z,1.63
2023-02-15T19:37:38.235Z,1.60
2023-02-15T19:40:09.523Z,1.61
2023-02-15T19:42:38.207Z,1.60
2023-02-15T19:45:16.454Z,1.60
2023-02-15T19:47:47.816Z,1.61
2023-02-15T19:50:19.228Z,1.59
2023-02-15T19:52:48.657Z,1.60
2023-02-15T19:55:28.627Z,1.67
2023-02-15T19:57:59.366Z,1.68
2023-02-15T20:00:31.938Z,1.57
2023-02-15T20:03:01.800Z,1.51
2023-02-15T20:05:38.417Z,1.48
2023-02-15T20:08:14.966Z,1.42
2023-02-15T20:10:45.670Z,1.41
2023-02-15T20:13:17.252Z,1.41
2023-02-15T20:15:51.752Z,1.37
2023-02-15T20:18:22.569Z,1.41
2023-02-15T20:20:57.174Z,1.37
2023-02-15T20:23:31.068Z,1.30
2023-02-15T20:26:02.971Z,1.31
2023-02-15T20:28:33.686Z,1.26
2023-02-15T20:31:04.209Z,1.24
2023-02-15T20:33:33.921Z,1.19
2023-02-15T20:36:02.563Z,1.23
2023-02-15T20:38:33.212Z,1.18
2023-02-15T20:41:19.817Z,1.15
2023-02-15T20:43:48.599Z,1.14
2023-02-15T20:46:20.490Z,1.15
2023-02-15T20:48:49.036Z,1.11
2023-02-15T20:51:20.264Z,1.10
2023-02-15T20:53:49.428Z,1.16
2023-02-15T20:56:22.902Z,1.12
2023-02-15T20:58:52.314Z,1.09
2023-02-15T21:01:22.585Z,1.11
2023-02-15T21:03:51.424Z,1.13
2023-02-15T21:06:20.132Z,1.16
2023-02-15T21:08:48.578Z,1.13
2023-02-15T21:11:21.577Z,1.14
2023-02-15T21:13:51.550Z,1.10
2023-02-15T21:16:21.376Z,1.12
2023-02-15T21:18:49.754Z,1.11
2023-02-15T21:21:24.619Z,1.10
2023-02-15T21:23:54.963Z,1.09
2023-02-15T21:26:24.352Z,1.12
2023-02-15T21:28:52.900Z,1.12
2023-02-15T21:31:25.986Z,1.10
2023-02-15T21:33:54.985Z,1.09
2023-02-15T21:36:26.866Z,1.06
2023-02-15T21:38:55.646Z,1.02
2023-02-15T21:41:43.180Z,0.98
2023-02-15T21:44:36.487Z,1.02
2023-02-15T21:47:24.666Z,1.02
2023-02-15T21:49:53.180Z,1.01
2023-02-15T21:52:23.556Z,0.96
2023-02-15T21:54:51.981Z,0.97
2023-02-15T21:57:22.253Z,1.01
2023-02-15T21:59:50.773Z,1.01
2023-02-15T22:02:32.394Z,1.05
2023-02-15T22:05:01.738Z,1.05
2023-02-15T22:07:30.141Z,1.06
2023-02-15T22:09:58.494Z,1.04
2023-02-15T22:12:26.790Z,1.02
2023-02-15T22:14:55.569Z,1.00
2023-02-15T22:17:29.002Z,0.96
2023-02-15T22:19:59.523Z,0.93
2023-02-15T22:22:30.164Z,0.92
2023-02-15T22:24:58.455Z,0.82
2023-02-15T22:27:31.558Z,0.79
2023-02-15T22:30:00.060Z,0.76
2023-02-15T22:32:28.842Z,0.71
2023-02-15T22:34:58.552Z,0.64
2023-02-15T22:37:26.972Z,0.66
2023-02-15T22:39:55.820Z,0.64
2023-02-15T22:42:27.819Z,0.61
2023-02-15T22:44:59.001Z,0.62
2023-02-15T22:47:32.202Z,0.57
2023-02-15T22:50:03.035Z,0.50
2023-02-15T22:52:31.298Z,0.54
2023-02-15T22:54:59.661Z,0.52
2023-02-15T22:57:35.495Z,0.39
2023-02-15T23:00:06.319Z,0.33
2023-02-15T23:02:34.692Z,0.19
2023-02-15T23:05:04.482Z,0.12
2023-02-15T23:07:33.854Z,0.03
2023-02-15T23:10:02.461Z,0.13
2023-02-15T23:12:53.647Z,0.14
2023-02-15T23:15:22.017Z,0.14
2023-02-15T23:17:50.335Z,0.06
2023-02-15T23:20:20.462Z,0.12
2023-02-15T23:22:48.838Z,0.09
2023-02-15T23:25:19.153Z,0.07
2023-02-15T23:27:59.307Z,0.03
2023-02-15T23:30:28.320Z,-0.05
2023-02-15T23:32:59.154Z,0.01
2023-02-15T23:35:28.871Z,-0.07
2023-02-15T23:37:57.312Z,-0.20
2023-02-15T23:40:43.286Z,-0.14
2023-02-15T23:43:22.923Z,-0.05
2023-02-15T23:45:51.488Z,-0.09
2023-02-15T23:48:33.442Z,-0.17
2023-02-15T23:51:04.089Z,-0.16
2023-02-15T23:53:34.916Z,-0.08
2023-02-15T23:56:03.827Z,-0.10
2023-02-15T23:58:40.391Z,-0.07
